createdAt,value
2018-02-12T00:05:26.100Z,53.2
2018-02-12T00:22:13.423Z,53.2
2018-02-12T00:38:59.903Z,52.8
2018-02-12T00:55:46.296Z,52.8
2018-02-12T01:12:33.913Z,52.4
2018-02-12T01:29:20.111Z,52.4
2018-02-12T01:46:07.132Z,52.0
2018-02-12T02:02:53.571Z,51.6
2018-02-12T02:19:40.358Z,51.2
2018-02-12T02:36:27.001Z,51.2
2018-02-12T02:53:13.612Z,51.2
2018-02-12T03:10:00.422Z,51.2
2018-02-12T03:26:47.116Z,50.8
2018-02-12T03:43:33.705Z,50.8
2018-02-12T04:00:20.230Z,50.0
2018-02-12T04:17:07.234Z,50.0
2018-02-12T04:33:53.526Z,50.0
2018-02-12T04:50:40.024Z,50.0
2018-02-12T05:07:26.183Z,49.6
2018-02-12T05:24:13.050Z,49.6
2018-02-12T05:40:59.348Z,49.2
2018-02-12T05:57:46.149Z,49.2
2018-02-12T06:14:32.483Z,49.2
2018-02-12T06:31:19.547Z,48.8
2018-02-12T06:48:05.788Z,48.4
2018-02-12T07:04:51.959Z,48.8
2018-02-12T07:21:38.102Z,49.2
2018-02-12T07:38:23.972Z,49.2
2018-02-12T07:55:10.764Z,48.8
2018-02-12T08:11:56.834Z,48.0
2018-02-12T08:28:42.996Z,48.4
2018-02-12T08:45:30.258Z,48.4
2018-02-12T09:02:16.563Z,48.8
2018-02-12T09:19:03.593Z,48.4
2018-02-12T09:35:50.316Z,49.2
2018-02-12T09:52:37.064Z,50.4
2018-02-12T10:09:24.340Z,51.2
2018-02-12T10:22:50.524Z,50.8
2018-02-12T10:32:54.223Z,48.8
2018-02-12T10:49:41.342Z,48.4
2018-02-12T11:06:28.127Z,48.0
2018-02-12T11:23:15.262Z,46.8
2018-02-12T11:40:02.577Z,47.2
2018-02-12T11:56:49.667Z,46.8
2018-02-12T12:13:36.196Z,46.8
2018-02-12T12:30:23.257Z,42.0
2018-02-12T12:33:44.561Z,43.6
2018-02-12T12:50:31.078Z,44.0
2018-02-12T13:07:18.557Z,43.2
2018-02-12T13:24:04.539Z,44.4
2018-02-12T13:40:51.225Z,45.2
2018-02-12T13:57:38.639Z,45.6
2018-02-12T14:14:26.102Z,45.6
2018-02-12T14:31:13.638Z,46.0
2018-02-12T14:48:01.142Z,46.4
2018-02-12T15:04:48.599Z,46.4
2018-02-12T15:21:36.476Z,46.8
2018-02-12T15:38:23.321Z,46.8
2018-02-12T15:55:10.689Z,46.8
2018-02-12T16:11:58.078Z,47.2
2018-02-12T16:28:45.548Z,47.2
2018-02-12T16:45:32.851Z,47.2
2018-02-12T17:02:20.198Z,46.8
2018-02-12T17:19:08.232Z,46.4
2018-02-12T17:35:54.825Z,46.8
2018-02-12T17:52:42.152Z,47.2
2018-02-12T18:09:29.597Z,48.0
2018-02-12T18:26:17.201Z,48.4
2018-02-12T18:43:03.784Z,47.2
2018-02-12T18:59:50.134Z,45.6
2018-02-12T19:16:36.531Z,45.2
2018-02-12T19:33:22.918Z,46.4
2018-02-12T19:50:09.420Z,46.8
2018-02-12T20:06:55.935Z,47.2
2018-02-12T20:23:42.381Z,47.2
2018-02-12T20:40:29.271Z,47.2
2018-02-12T20:57:15.790Z,47.6
2018-02-12T21:14:02.683Z,47.6
2018-02-12T21:30:49.518Z,47.6
2018-02-12T21:47:35.723Z,48.0
2018-02-12T22:04:22.417Z,47.2
2018-02-12T22:21:09.303Z,46.8
2018-02-12T22:37:56.420Z,46.8
2018-02-12T22:54:42.934Z,46.4
2018-02-12T23:11:30.153Z,46.4
2018-02-12T23:28:17.528Z,46.4
2018-02-12T23:45:03.733Z,46.4
2018-02-12T23:58:29.215Z,45.2
